createdAt,value
2023-01-31T00:00:36.578Z,97545.88
2023-01-31T00:03:04.640Z,97546.44
2023-01-31T00:05:32.752Z,97528.94
2023-01-31T00:08:01.606Z,97540.00
2023-01-31T00:10:29.782Z,97551.34
2023-01-31T00:12:58.396Z,97533.06
2023-01-31T00:15:27.866Z,97536.34
2023-01-31T00:17:56.539Z,97531.75
2023-01-31T00:20:24.642Z,97537.41
2023-01-31T00:22:53.641Z,97539.19
2023-01-31T00:25:22.021Z,97524.78
2023-01-31T00:27:50.246Z,97544.03
2023-01-31T00:30:18.894Z,97544.13
2023-01-31T00:32:48.455Z,97551.13
2023-01-31T00:35:16.615Z,97549.38
2023-01-31T00:37:45.937Z,97567.38
2023-01-31T00:40:15.440Z,97570.75
2023-01-31T00:42:43.857Z,97560.84
2023-01-31T00:45:13.605Z,97569.63
2023-01-31T00:47:41.749Z,97567.78
2023-01-31T00:50:16.052Z,97564.47
2023-01-31T00:52:44.223Z,97587.03
2023-01-31T00:55:12.350Z,97580.94
2023-01-31T00:57:40.481Z,97587.28
2023-01-31T01:00:10.550Z,97588.06
2023-01-31T01:02:38.681Z,97593.47
2023-01-31T01:05:07.647Z,97592.00
2023-01-31T01:07:37.572Z,97598.19
2023-01-31T01:10:06.789Z,97589.25
2023-01-31T01:12:35.385Z,97606.16
2023-01-31T01:15:03.521Z,97597.53
2023-01-31T01:17:31.653Z,97606.97
2023-01-31T01:20:03.565Z,97596.38
2023-01-31T01:22:32.360Z,97589.53
2023-01-31T01:25:01.933Z,97594.78
2023-01-31T01:27:30.349Z,97632.75
2023-01-31T01:29:59.094Z,97618.75
2023-01-31T01:32:27.228Z,97602.09
2023-01-31T01:34:55.379Z,97606.47
2023-01-31T01:37:23.512Z,97613.84
2023-01-31T01:39:51.981Z,97620.19
2023-01-31T01:42:23.699Z,97624.56
2023-01-31T01:44:54.174Z,97621.19
2023-01-31T01:47:38.260Z,97625.28
2023-01-31T01:50:14.399Z,97619.31
2023-01-31T01:52:47.280Z,97618.13
2023-01-31T01:55:22.005Z,97616.09
2023-01-31T01:57:57.222Z,97625.78
2023-01-31T02:00:30.004Z,97625.91
2023-01-31T02:03:01.109Z,97619.13
2023-01-31T02:05:33.735Z,97629.03
2023-01-31T02:08:03.733Z,97629.00
2023-01-31T02:10:36.061Z,97626.22
2023-01-31T02:13:08.028Z,97652.38
2023-01-31T02:15:36.934Z,97636.66
2023-01-31T02:18:05.901Z,97625.38
2023-01-31T02:21:14.700Z,97635.03
2023-01-31T02:24:07.707Z,97642.78
2023-01-31T02:27:07.531Z,97648.06
2023-01-31T02:30:26.493Z,97639.09
2023-01-31T02:33:04.398Z,97650.91
2023-01-31T02:35:46.650Z,97650.91
2023-01-31T02:38:26.573Z,97639.88
2023-01-31T02:41:02.853Z,97639.13
2023-01-31T02:44:05.285Z,97652.34
2023-01-31T02:46:42.243Z,97649.78
2023-01-31T02:49:34.700Z,97657.28
2023-01-31T02:52:17.826Z,97663.38
2023-01-31T02:55:15.249Z,97653.19
2023-01-31T02:57:46.274Z,97648.44
2023-01-31T03:00:15.504Z,97649.44
2023-01-31T03:02:43.585Z,97667.00
2023-01-31T03:05:17.032Z,97656.88
2023-01-31T03:07:49.167Z,97664.72
2023-01-31T03:10:35.382Z,97663.03
2023-01-31T03:13:24.450Z,97677.06
2023-01-31T03:16:21.320Z,97672.63
2023-01-31T03:18:58.856Z,97678.72
2023-01-31T03:21:33.841Z,97672.94
2023-01-31T03:24:03.653Z,97682.44
2023-01-31T03:26:32.080Z,97685.19
2023-01-31T03:29:04.769Z,97675.53
2023-01-31T03:31:40.145Z,97698.41
2023-01-31T03:34:11.625Z,97701.19
2023-01-31T03:36:47.734Z,97701.06
2023-01-31T03:39:40.280Z,97708.03
2023-01-31T03:42:16.162Z,97704.41
2023-01-31T03:44:53.443Z,97721.94
2023-01-31T03:47:27.319Z,97713.25
2023-01-31T03:49:57.726Z,97684.69
2023-01-31T03:52:36.069Z,97688.31
2023-01-31T03:55:09.143Z,97695.31
2023-01-31T03:57:42.541Z,97696.66
2023-01-31T04:00:16.868Z,97704.69
2023-01-31T04:02:55.316Z,97713.50
2023-01-31T04:05:30.634Z,97713.75
2023-01-31T04:08:00.842Z,97719.16
2023-01-31T04:10:31.515Z,97721.16
2023-01-31T04:12:59.756Z,97711.63
2023-01-31T04:15:27.995Z,97716.03
2023-01-31T04:17:56.133Z,97707.06
2023-01-31T04:20:24.296Z,97721.19
2023-01-31T04:22:52.392Z,97724.78
2023-01-31T04:25:22.476Z,97724.25
2023-01-31T04:27:51.665Z,97729.78
2023-01-31T04:30:19.989Z,97727.38
2023-01-31T04:32:48.135Z,97732.44
2023-01-31T04:35:16.326Z,97736.00
2023-01-31T04:37:44.447Z,97729.31
2023-01-31T04:40:13.923Z,97740.66
2023-01-31T04:42:43.491Z,97733.97
2023-01-31T04:45:12.704Z,97734.91
2023-01-31T04:47:40.994Z,97726.69
2023-01-31T04:50:10.100Z,97725.03
2023-01-31T04:52:38.234Z,97728.34
2023-01-31T04:55:07.194Z,97734.53
2023-01-31T04:57:35.318Z,97738.97
2023-01-31T05:00:05.481Z,97727.84
2023-01-31T05:02:33.816Z,97724.34
2023-01-31T05:05:02.941Z,97720.81
2023-01-31T05:07:31.525Z,97730.44
2023-01-31T05:09:59.698Z,97752.41
2023-01-31T05:12:28.567Z,97751.88
2023-01-31T05:14:56.738Z,97751.16
2023-01-31T05:17:29.768Z,97769.31
2023-01-31T05:19:57.990Z,97765.28
2023-01-31T05:22:26.506Z,97766.34
2023-01-31T05:24:56.197Z,97757.06
2023-01-31T05:27:26.343Z,97762.28
2023-01-31T05:29:55.059Z,97772.34
2023-01-31T05:32:23.304Z,97768.84
2023-01-31T05:34:52.820Z,97778.69
2023-01-31T05:37:20.979Z,97772.03
2023-01-31T05:39:49.144Z,97767.94
2023-01-31T05:42:17.287Z,97759.09
2023-01-31T05:44:45.343Z,97764.25
2023-01-31T05:47:13.403Z,97766.97
2023-01-31T05:49:41.652Z,97764.44
2023-01-31T05:52:11.182Z,97766.31
2023-01-31T05:54:39.321Z,97772.41
2023-01-31T05:57:07.688Z,97769.94
2023-01-31T05:59:35.798Z,97783.31
2023-01-31T06:02:04.004Z,97766.09
2023-01-31T06:04:32.230Z,97768.88
2023-01-31T06:07:00.447Z,97777.72
2023-01-31T06:09:30.075Z,97774.34
2023-01-31T06:11:58.612Z,97767.44
2023-01-31T06:14:26.961Z,97775.31
2023-01-31T06:16:55.075Z,97774.47
2023-01-31T06:19:25.452Z,97770.06
2023-01-31T06:21:53.648Z,97767.34
2023-01-31T06:24:21.837Z,97756.94
2023-01-31T06:26:51.366Z,97758.66
2023-01-31T06:29:19.480Z,97769.94
2023-01-31T06:31:47.592Z,97770.88
2023-01-31T06:34:15.965Z,97776.06
2023-01-31T06:36:44.082Z,97757.13
2023-01-31T06:39:12.914Z,97777.03
2023-01-31T06:41:41.584Z,97783.16
2023-01-31T06:44:11.104Z,97790.06
2023-01-31T06:46:39.593Z,97778.78
2023-01-31T06:49:07.732Z,97782.16
2023-01-31T06:51:35.902Z,97776.00
2023-01-31T06:54:04.076Z,97803.56
2023-01-31T06:56:32.665Z,97805.56
2023-01-31T06:59:00.930Z,97805.28
2023-01-31T07:01:30.509Z,97814.53
2023-01-31T07:03:58.763Z,97801.03
2023-01-31T07:06:26.980Z,97800.41
2023-01-31T07:08:55.076Z,97798.81
2023-01-31T07:11:23.173Z,97812.78
2023-01-31T07:13:51.303Z,97803.22
2023-01-31T07:16:19.906Z,97811.41
2023-01-31T07:18:49.484Z,97809.31
2023-01-31T07:21:17.610Z,97815.03
2023-01-31T07:23:46.441Z,97818.94
2023-01-31T07:26:14.750Z,97824.00
2023-01-31T07:28:42.893Z,97799.53
2023-01-31T07:31:14.065Z,97809.63
2023-01-31T07:33:42.659Z,97807.81
2023-01-31T07:36:15.226Z,97809.25
2023-01-31T07:38:43.907Z,97812.00
2023-01-31T07:41:12.737Z,97819.00
2023-01-31T07:43:40.906Z,97811.50
2023-01-31T07:46:11.135Z,97816.03
2023-01-31T07:48:39.870Z,97813.84
2023-01-31T07:51:08.197Z,97805.16
2023-01-31T07:53:42.268Z,97813.22
2023-01-31T07:56:12.654Z,97809.50
2023-01-31T07:58:42.048Z,97822.75
2023-01-31T08:01:33.027Z,97823.91
2023-01-31T08:04:18.195Z,97829.97
2023-01-31T08:06:48.400Z,97832.06
2023-01-31T08:09:17.918Z,97833.41
2023-01-31T08:11:46.213Z,97835.47
2023-01-31T08:14:14.392Z,97835.56
2023-01-31T08:16:42.602Z,97834.25
2023-01-31T08:19:10.820Z,97847.69
2023-01-31T08:21:38.952Z,97847.63
2023-01-31T08:24:07.844Z,97845.97
2023-01-31T08:26:37.440Z,97859.56
2023-01-31T08:29:05.677Z,97857.06
2023-01-31T08:31:33.989Z,97857.22
2023-01-31T08:34:03.282Z,97847.53
2023-01-31T08:36:32.940Z,97851.50
2023-01-31T08:39:01.868Z,97857.63
2023-01-31T08:41:31.436Z,97860.91
2023-01-31T08:44:02.868Z,97860.09
2023-01-31T08:46:34.741Z,97855.19
2023-01-31T08:49:04.381Z,97870.00
2023-01-31T08:51:32.606Z,97872.78
2023-01-31T08:54:00.729Z,97879.75
2023-01-31T08:56:28.971Z,97871.00
2023-01-31T08:59:00.169Z,97880.19
2023-01-31T09:01:29.146Z,97886.03
2023-01-31T09:03:58.293Z,97890.41
2023-01-31T09:06:28.138Z,97877.72
2023-01-31T09:08:57.837Z,97877.44
2023-01-31T09:11:28.947Z,97881.44
2023-01-31T09:13:57.179Z,97890.28
2023-01-31T09:16:26.731Z,97884.16
2023-01-31T09:18:56.421Z,97895.31
2023-01-31T09:21:25.550Z,97885.94
2023-01-31T09:23:57.624Z,97885.63
2023-01-31T09:26:26.337Z,97890.78
2023-01-31T09:28:54.602Z,97890.78
2023-01-31T09:31:22.916Z,97887.59
2023-01-31T09:33:52.524Z,97880.13
2023-01-31T09:36:24.140Z,97885.56
2023-01-31T09:38:57.039Z,97874.16
2023-01-31T09:41:32.041Z,97871.94
2023-01-31T09:44:04.054Z,97873.19
2023-01-31T09:46:37.739Z,97865.47
2023-01-31T09:49:12.001Z,97870.38
2023-01-31T09:51:41.399Z,97863.34
2023-01-31T09:54:21.974Z,97877.72
2023-01-31T09:57:02.169Z,97894.09
2023-01-31T09:59:37.171Z,97881.44
2023-01-31T10:02:38.875Z,97876.78
2023-01-31T10:05:25.019Z,97889.13
2023-01-31T10:08:05.970Z,97890.69
2023-01-31T10:10:39.559Z,97878.53
2023-01-31T10:13:18.404Z,97885.44
2023-01-31T10:15:50.881Z,97880.44
2023-01-31T10:18:24.448Z,97879.31
2023-01-31T10:20:58.095Z,97865.00
2023-01-31T10:23:31.483Z,97870.38
2023-01-31T10:26:02.034Z,97875.03
2023-01-31T10:28:37.273Z,97878.19
2023-01-31T10:31:12.972Z,97878.44
2023-01-31T10:33:50.672Z,97881.91
2023-01-31T10:36:28.012Z,97879.81
2023-01-31T10:39:03.975Z,97871.84
2023-01-31T10:41:41.673Z,97881.28
2023-01-31T10:44:19.104Z,97870.56
2023-01-31T10:46:48.842Z,97865.47
2023-01-31T10:49:17.533Z,97866.50
2023-01-31T10:52:04.707Z,97875.00
2023-01-31T10:54:43.892Z,97857.19
2023-01-31T10:57:12.171Z,97869.22
2023-01-31T10:59:44.197Z,97864.09
2023-01-31T11:02:20.273Z,97858.44
2023-01-31T11:04:48.417Z,97854.81
2023-01-31T11:07:18.118Z,97851.47
2023-01-31T11:09:51.632Z,97855.53
2023-01-31T11:12:19.911Z,97857.78
2023-01-31T11:15:06.836Z,97847.38
2023-01-31T11:17:38.746Z,97848.34
2023-01-31T11:20:07.860Z,97840.94
2023-01-31T11:22:38.921Z,97836.94
2023-01-31T11:25:08.147Z,97818.81
2023-01-31T11:27:40.710Z,97802.13
2023-01-31T11:30:22.293Z,97827.19
2023-01-31T11:32:50.802Z,97828.75
2023-01-31T11:35:29.440Z,97840.47
2023-01-31T11:38:01.223Z,97830.09
2023-01-31T11:40:32.394Z,97831.59
2023-01-31T11:43:02.188Z,97825.16
2023-01-31T11:45:33.075Z,97834.44
2023-01-31T11:48:12.214Z,97822.41
2023-01-31T11:50:42.313Z,97817.34
2023-01-31T11:53:20.719Z,97820.53
2023-01-31T11:55:51.637Z,97823.38
2023-01-31T11:58:22.764Z,97810.69
2023-01-31T12:00:56.576Z,97816.69
2023-01-31T12:03:25.919Z,97818.41
2023-01-31T12:06:02.781Z,97820.00
2023-01-31T12:08:35.794Z,97825.50
2023-01-31T12:11:06.987Z,97832.41
2023-01-31T12:13:47.084Z,97833.50
2023-01-31T12:16:18.381Z,97823.38
2023-01-31T12:19:04.009Z,97814.38
2023-01-31T12:21:47.694Z,97815.97
2023-01-31T12:24:30.003Z,97823.44
2023-01-31T12:27:05.450Z,97809.25
2023-01-31T12:30:04.609Z,97819.78
2023-01-31T12:32:54.793Z,97806.00
2023-01-31T12:35:36.117Z,97827.59
2023-01-31T12:38:23.729Z,97831.22
2023-01-31T12:41:04.012Z,97823.97
2023-01-31T12:43:52.559Z,97825.84
2023-01-31T12:46:27.105Z,97806.75
2023-01-31T12:49:09.695Z,97812.06
2023-01-31T12:51:44.744Z,97802.50
2023-01-31T12:54:31.926Z,97800.75
2023-01-31T12:57:12.555Z,97796.16
2023-01-31T12:59:51.960Z,97804.97
2023-01-31T13:02:42.397Z,97798.34
2023-01-31T13:05:21.734Z,97808.97
2023-01-31T13:07:53.121Z,97805.53
2023-01-31T13:10:31.756Z,97807.66
2023-01-31T13:13:02.282Z,97800.22
2023-01-31T13:15:38.432Z,97798.50
2023-01-31T13:18:08.208Z,97801.38
2023-01-31T13:20:41.373Z,97809.31
2023-01-31T13:23:16.822Z,97795.88
2023-01-31T13:25:51.161Z,97792.72
2023-01-31T13:28:26.673Z,97789.44
2023-01-31T13:30:58.444Z,97777.69
2023-01-31T13:33:33.702Z,97780.63
2023-01-31T13:36:17.041Z,97785.13
2023-01-31T13:38:46.552Z,97780.34
2023-01-31T13:41:22.338Z,97779.66
2023-01-31T13:43:51.902Z,97778.78
2023-01-31T13:46:24.726Z,97786.00
2023-01-31T13:48:57.162Z,97784.16
2023-01-31T13:51:30.729Z,97772.59
2023-01-31T13:54:05.070Z,97779.19
2023-01-31T13:56:36.264Z,97769.81
2023-01-31T13:59:09.697Z,97778.16
2023-01-31T14:01:46.788Z,97764.47
2023-01-31T14:04:26.595Z,97768.09
2023-01-31T14:07:23.966Z,97760.69
2023-01-31T14:10:37.651Z,97767.38
2023-01-31T14:13:26.966Z,97772.22
2023-01-31T14:15:57.796Z,97773.13
2023-01-31T14:18:40.530Z,97770.81
2023-01-31T14:21:54.842Z,97773.59
2023-01-31T14:25:04.716Z,97777.22
2023-01-31T14:27:37.181Z,97772.00
2023-01-31T14:30:35.864Z,97779.31
2023-01-31T14:33:20.512Z,97793.06
2023-01-31T14:36:26.547Z,97782.63
2023-01-31T14:39:30.148Z,97785.69
2023-01-31T14:42:31.584Z,97790.81
2023-01-31T14:45:17.358Z,97786.03
2023-01-31T14:48:00.153Z,97789.84
2023-01-31T14:50:43.042Z,97783.97
2023-01-31T14:53:36.786Z,97789.34
2023-01-31T14:56:19.421Z,97787.75
2023-01-31T14:58:48.784Z,97786.31
2023-01-31T15:01:21.592Z,97780.91
2023-01-31T15:03:52.670Z,97788.94
2023-01-31T15:06:28.177Z,97781.91
2023-01-31T15:09:29.025Z,97775.56
2023-01-31T15:11:58.985Z,97777.72
2023-01-31T15:14:35.140Z,97778.50
2023-01-31T15:17:14.989Z,97781.00
2023-01-31T15:19:56.384Z,97775.31
2023-01-31T15:22:27.728Z,97788.16
2023-01-31T15:24:58.806Z,97781.03
2023-01-31T15:27:30.614Z,97780.03
2023-01-31T15:30:06.987Z,97784.03
2023-01-31T15:32:41.270Z,97796.06
2023-01-31T15:35:19.082Z,97789.97
2023-01-31T15:37:56.865Z,97783.25
2023-01-31T15:40:28.857Z,97789.78
2023-01-31T15:43:16.491Z,97792.63
2023-01-31T15:45:44.873Z,97791.09
2023-01-31T15:48:15.729Z,97795.31
2023-01-31T15:50:50.859Z,97784.50
2023-01-31T15:53:23.653Z,97782.25
2023-01-31T15:55:55.025Z,97786.53
2023-01-31T15:58:26.164Z,97772.19
2023-01-31T16:00:56.682Z,97784.88
2023-01-31T16:03:26.669Z,97790.31
2023-01-31T16:05:56.804Z,97785.03
2023-01-31T16:08:31.292Z,97787.91
2023-01-31T16:11:00.484Z,97775.19
2023-01-31T16:13:29.514Z,97776.25
2023-01-31T16:15:58.338Z,97788.47
2023-01-31T16:18:27.022Z,97797.66
2023-01-31T16:20:57.936Z,97802.75
2023-01-31T16:23:31.641Z,97803.91
2023-01-31T16:26:13.126Z,97805.88
2023-01-31T16:28:44.976Z,97790.59
2023-01-31T16:31:15.797Z,97792.53
2023-01-31T16:33:49.839Z,97797.66
2023-01-31T16:36:23.454Z,97804.44
2023-01-31T16:38:58.442Z,97798.03
2023-01-31T16:41:47.148Z,97780.06
2023-01-31T16:44:19.509Z,97792.56
2023-01-31T16:46:49.600Z,97795.63
2023-01-31T16:49:26.601Z,97803.78
2023-01-31T16:51:58.395Z,97805.69
2023-01-31T16:54:31.190Z,97790.84
2023-01-31T16:57:21.660Z,97777.28
2023-01-31T16:59:51.464Z,97792.16
2023-01-31T17:02:24.454Z,97804.19
2023-01-31T17:04:56.680Z,97796.66
2023-01-31T17:07:28.246Z,97809.59
2023-01-31T17:10:00.975Z,97799.22
2023-01-31T17:12:31.180Z,97793.13
2023-01-31T17:15:02.897Z,97800.34
2023-01-31T17:17:34.587Z,97802.13
2023-01-31T17:20:03.372Z,97786.47
2023-01-31T17:22:32.577Z,97796.19
2023-01-31T17:25:03.514Z,97784.94
2023-01-31T17:27:32.368Z,97803.91
2023-01-31T17:30:02.006Z,97815.66
2023-01-31T17:32:32.345Z,97808.66
2023-01-31T17:35:02.574Z,97798.53
2023-01-31T17:37:32.112Z,97801.41
2023-01-31T17:40:03.415Z,97785.41
2023-01-31T17:42:33.135Z,97786.94
2023-01-31T17:45:03.378Z,97783.72
2023-01-31T17:47:32.022Z,97779.66
2023-01-31T17:50:06.036Z,97782.22
2023-01-31T17:52:35.292Z,97780.88
2023-01-31T17:55:15.420Z,97781.88
2023-01-31T17:57:44.970Z,97786.09
2023-01-31T18:00:16.217Z,97789.59
2023-01-31T18:02:45.169Z,97783.84
2023-01-31T18:05:20.311Z,97773.38
2023-01-31T18:07:52.749Z,97770.22
2023-01-31T18:10:24.011Z,97761.47
2023-01-31T18:12:53.752Z,97765.09
2023-01-31T18:15:25.125Z,97755.44
2023-01-31T18:17:54.785Z,97767.34
2023-01-31T18:20:25.488Z,97756.72
2023-01-31T18:22:55.463Z,97752.69
2023-01-31T18:25:26.507Z,97751.84
2023-01-31T18:27:56.182Z,97751.25
2023-01-31T18:30:26.313Z,97759.09
2023-01-31T18:32:55.477Z,97768.69
2023-01-31T18:35:25.056Z,97775.91
2023-01-31T18:37:56.994Z,97767.16
2023-01-31T18:40:28.080Z,97779.09
2023-01-31T18:42:58.135Z,97788.03
2023-01-31T18:45:29.085Z,97788.72
2023-01-31T18:48:07.699Z,97776.63
2023-01-31T18:50:37.232Z,97773.88
2023-01-31T18:53:08.851Z,97787.84
2023-01-31T18:55:40.667Z,97800.13
2023-01-31T18:58:10.274Z,97793.53
2023-01-31T19:00:40.594Z,97798.03
2023-01-31T19:03:10.586Z,97793.81
2023-01-31T19:05:40.659Z,97789.28
2023-01-31T19:08:10.728Z,97791.72
2023-01-31T19:10:41.965Z,97773.66
2023-01-31T19:13:11.981Z,97786.88
2023-01-31T19:15:42.791Z,97772.53
2023-01-31T19:18:12.974Z,97778.47
2023-01-31T19:20:42.961Z,97790.47
2023-01-31T19:23:11.821Z,97769.88
2023-01-31T19:25:44.520Z,97763.84
2023-01-31T19:28:14.110Z,97769.19
2023-01-31T19:30:43.259Z,97755.41
2023-01-31T19:33:15.730Z,97758.03
2023-01-31T19:35:45.916Z,97776.13
2023-01-31T19:38:16.041Z,97787.59
2023-01-31T19:40:49.244Z,97754.75
2023-01-31T19:43:20.254Z,97748.72
2023-01-31T19:45:51.379Z,97752.00
2023-01-31T19:48:20.681Z,97757.06
2023-01-31T19:50:51.504Z,97757.31
2023-01-31T19:53:24.516Z,97730.41
2023-01-31T19:55:57.934Z,97741.50
2023-01-31T19:58:31.915Z,97753.66
2023-01-31T20:01:02.775Z,97752.69
2023-01-31T20:03:36.919Z,97752.88
2023-01-31T20:06:11.206Z,97764.25
2023-01-31T20:08:40.994Z,97772.34
2023-01-31T20:11:14.960Z,97760.06
2023-01-31T20:13:44.254Z,97765.25
2023-01-31T20:16:17.826Z,97769.56
2023-01-31T20:18:48.074Z,97760.16
2023-01-31T20:21:19.342Z,97761.94
2023-01-31T20:23:49.142Z,97754.16
2023-01-31T20:26:26.151Z,97745.72
2023-01-31T20:28:59.716Z,97748.22
2023-01-31T20:31:30.149Z,97741.41
2023-01-31T20:34:00.146Z,97743.34
2023-01-31T20:36:30.084Z,97738.13
2023-01-31T20:38:59.464Z,97755.91
2023-01-31T20:41:33.007Z,97753.34
2023-01-31T20:44:03.909Z,97756.09
2023-01-31T20:46:37.460Z,97743.97
2023-01-31T20:49:07.560Z,97755.31
2023-01-31T20:51:39.957Z,97757.25
2023-01-31T20:54:09.446Z,97750.22
2023-01-31T20:56:43.901Z,97750.31
2023-01-31T20:59:13.675Z,97761.44
2023-01-31T21:01:44.909Z,97763.88
2023-01-31T21:04:14.395Z,97742.94
2023-01-31T21:06:44.232Z,97733.00
2023-01-31T21:09:15.139Z,97752.94
2023-01-31T21:11:46.010Z,97744.22
2023-01-31T21:14:14.957Z,97734.63
2023-01-31T21:16:43.908Z,97748.34
2023-01-31T21:19:12.734Z,97738.16
2023-01-31T21:21:42.043Z,97744.25
2023-01-31T21:24:11.370Z,97726.16
2023-01-31T21:26:43.555Z,97739.81
2023-01-31T21:29:13.227Z,97724.09
2023-01-31T21:31:41.740Z,97733.81
2023-01-31T21:34:10.156Z,97732.13
2023-01-31T21:36:38.802Z,97733.91
2023-01-31T21:39:07.383Z,97751.41
2023-01-31T21:41:53.354Z,97743.03
2023-01-31T21:44:23.343Z,97736.88
2023-01-31T21:46:51.740Z,97742.94
2023-01-31T21:49:19.875Z,97744.72
2023-01-31T21:51:48.025Z,97743.72
2023-01-31T21:54:16.178Z,97751.41
2023-01-31T21:56:44.346Z,97742.91
2023-01-31T21:59:12.680Z,97748.06
2023-01-31T22:01:42.375Z,97756.81
2023-01-31T22:04:10.708Z,97774.28
2023-01-31T22:06:40.453Z,97772.56
2023-01-31T22:09:11.805Z,97772.59
2023-01-31T22:11:40.332Z,97775.34
2023-01-31T22:14:11.071Z,97772.81
2023-01-31T22:16:40.222Z,97765.13
2023-01-31T22:19:11.811Z,97757.22
2023-01-31T22:21:40.684Z,97755.50
2023-01-31T22:24:11.765Z,97756.47
2023-01-31T22:26:42.543Z,97751.34
2023-01-31T22:29:13.130Z,97755.69
2023-01-31T22:31:41.625Z,97749.66
2023-01-31T22:34:14.247Z,97762.78
2023-01-31T22:36:42.865Z,97751.34
2023-01-31T22:39:13.334Z,97748.69
2023-01-31T22:41:42.108Z,97753.94
2023-01-31T22:44:10.192Z,97740.97
2023-01-31T22:46:38.390Z,97737.56
2023-01-31T22:49:06.509Z,97747.28
2023-01-31T22:51:35.978Z,97753.25
2023-01-31T22:54:04.368Z,97746.22
2023-01-31T22:56:33.515Z,97730.72
2023-01-31T22:59:03.365Z,97740.16
2023-01-31T23:01:34.618Z,97756.28
2023-01-31T23:04:04.444Z,97742.34
2023-01-31T23:06:32.617Z,97719.75
2023-01-31T23:09:02.106Z,97721.28
2023-01-31T23:11:30.272Z,97723.88
2023-01-31T23:13:58.708Z,97712.63
2023-01-31T23:16:47.970Z,97706.97
2023-01-31T23:19:16.587Z,97698.53
2023-01-31T23:21:45.309Z,97701.88
2023-01-31T23:24:15.661Z,97699.44
2023-01-31T23:26:44.538Z,97704.63
2023-01-31T23:29:12.897Z,97712.44
2023-01-31T23:31:41.139Z,97710.91
2023-01-31T23:34:09.496Z,97708.13
2023-01-31T23:36:37.940Z,97703.78
2023-01-31T23:39:06.549Z,97698.78
2023-01-31T23:41:36.049Z,97703.97
2023-01-31T23:44:04.243Z,97707.66
2023-01-31T23:46:32.409Z,97705.00
2023-01-31T23:49:00.572Z,97706.56
2023-01-31T23:51:30.723Z,97708.41
2023-01-31T23:53:58.865Z,97711.69
2023-01-31T23:56:27.324Z,97707.56
2023-01-31T23:58:56.982Z,97716.19
